createdAt,value
2023-11-03T00:01:58.454Z,5.30
2023-11-03T00:04:27.179Z,5.50
2023-11-03T00:06:54.928Z,5.70
2023-11-03T00:09:25.120Z,5.70
2023-11-03T00:11:52.820Z,5.95
2023-11-03T00:14:20.529Z,5.43
2023-11-03T00:16:47.944Z,5.57
2023-11-03T00:19:16.720Z,5.47
2023-11-03T00:21:45.556Z,5.70
2023-11-03T00:24:15.832Z,5.47
2023-11-03T00:26:44.874Z,5.38
2023-11-03T00:29:12.567Z,5.53
2023-11-03T00:31:46.987Z,5.22
2023-11-03T00:34:15.048Z,5.53
2023-11-03T00:36:43.854Z,5.93
2023-11-03T00:39:13.903Z,5.50
2023-11-03T00:41:42.160Z,5.45
2023-11-03T00:44:12.592Z,5.75
2023-11-03T00:46:41.064Z,5.45
2023-11-03T00:49:08.992Z,5.93
2023-11-03T00:51:37.805Z,5.72
2023-11-03T00:54:08.327Z,5.45
2023-11-03T00:56:38.211Z,5.63
2023-11-03T00:59:05.970Z,5.68
2023-11-03T01:01:33.509Z,5.93
2023-11-03T01:04:01.756Z,5.13
2023-11-03T01:06:29.602Z,5.53
2023-11-03T01:08:58.762Z,5.78
2023-11-03T01:11:27.886Z,6.07
2023-11-03T01:13:57.564Z,6.15
2023-11-03T01:16:26.973Z,6.18
2023-11-03T01:18:55.934Z,6.32
2023-11-03T01:21:23.879Z,5.55
2023-11-03T01:23:53.523Z,5.75
2023-11-03T01:26:26.575Z,5.82
2023-11-03T01:28:54.748Z,5.85
2023-11-03T01:31:23.258Z,6.38
2023-11-03T01:33:51.530Z,6.22
2023-11-03T01:36:19.601Z,6.03
2023-11-03T01:38:49.706Z,5.88
2023-11-03T01:41:18.641Z,6.57
2023-11-03T01:44:08.019Z,6.30
2023-11-03T01:46:37.594Z,6.60
2023-11-03T01:49:08.302Z,6.30
2023-11-03T01:51:36.830Z,6.00
2023-11-03T01:54:05.482Z,6.07
2023-11-03T01:56:33.449Z,6.22
2023-11-03T01:59:03.288Z,6.03
2023-11-03T02:01:31.267Z,5.93
2023-11-03T02:03:59.740Z,6.22
2023-11-03T02:06:28.544Z,6.00
2023-11-03T02:08:56.870Z,5.53
2023-11-03T02:11:33.862Z,5.68
2023-11-03T02:14:01.938Z,5.68
2023-11-03T02:16:30.454Z,5.32
2023-11-03T02:18:58.412Z,5.60
2023-11-03T02:21:25.949Z,5.70
2023-11-03T02:23:54.198Z,5.45
2023-11-03T02:26:22.147Z,4.85
2023-11-03T02:28:50.730Z,5.80
2023-11-03T02:31:18.838Z,5.65
2023-11-03T02:33:46.833Z,5.60
2023-11-03T02:36:17.284Z,5.00
2023-11-03T02:38:45.807Z,5.50
2023-11-03T02:41:13.722Z,5.25
2023-11-03T02:43:41.793Z,5.20
2023-11-03T02:46:09.555Z,4.97
2023-11-03T02:48:37.303Z,5.18
2023-11-03T02:51:04.954Z,4.45
2023-11-03T02:53:32.724Z,4.82
2023-11-03T02:56:00.801Z,4.85
2023-11-03T02:58:36.040Z,4.60
2023-11-03T03:01:04.182Z,4.70
2023-11-03T03:03:47.422Z,4.07
2023-11-03T03:06:15.338Z,4.35
2023-11-03T03:08:42.891Z,3.85
2023-11-03T03:11:11.506Z,3.67
2023-11-03T03:13:39.154Z,3.80
2023-11-03T03:16:06.948Z,3.72
2023-11-03T03:18:34.677Z,3.88
2023-11-03T03:21:02.228Z,4.28
2023-11-03T03:23:30.058Z,4.00
2023-11-03T03:25:57.696Z,3.95
2023-11-03T03:28:25.412Z,5.03
2023-11-03T03:30:53.512Z,4.20
2023-11-03T03:33:21.201Z,4.07
2023-11-03T03:35:50.540Z,3.95
2023-11-03T03:38:18.308Z,3.85
2023-11-03T03:40:45.876Z,3.90
2023-11-03T03:43:14.010Z,3.63
2023-11-03T03:45:41.981Z,3.28
2023-11-03T03:48:10.128Z,3.60
2023-11-03T03:50:38.767Z,3.75
2023-11-03T03:53:07.206Z,5.80
2023-11-03T03:55:34.808Z,8.30
2023-11-03T03:58:02.387Z,5.80
2023-11-03T04:00:30.196Z,5.78
2023-11-03T04:02:57.901Z,5.80
2023-11-03T04:05:26.686Z,6.40
2023-11-03T04:07:54.246Z,6.28
2023-11-03T04:10:22.254Z,6.20
2023-11-03T04:12:50.115Z,5.55
2023-11-03T04:15:17.828Z,6.45
2023-11-03T04:17:46.114Z,5.60
2023-11-03T04:20:14.158Z,5.10
2023-11-03T04:22:44.053Z,4.57
2023-11-03T04:25:12.944Z,4.43
2023-11-03T04:27:41.038Z,4.53
2023-11-03T04:30:09.277Z,4.10
2023-11-03T04:32:37.041Z,4.03
2023-11-03T04:35:05.080Z,4.13
2023-11-03T04:37:32.807Z,4.05
2023-11-03T04:40:00.423Z,4.32
2023-11-03T04:42:28.124Z,3.95
2023-11-03T04:44:55.667Z,3.65
2023-11-03T04:47:23.160Z,4.20
2023-11-03T04:49:51.208Z,3.58
2023-11-03T04:52:20.379Z,3.72
2023-11-03T04:54:48.985Z,3.50
2023-11-03T04:57:18.253Z,3.67
2023-11-03T04:59:46.200Z,4.22
2023-11-03T05:02:14.063Z,3.70
2023-11-03T05:04:41.689Z,3.83
2023-11-03T05:07:09.597Z,3.55
2023-11-03T05:09:37.694Z,3.65
2023-11-03T05:12:05.990Z,3.50
2023-11-03T05:14:33.607Z,3.75
2023-11-03T05:17:01.510Z,3.00
2023-11-03T05:19:29.190Z,3.10
2023-11-03T05:21:56.999Z,3.03
2023-11-03T05:24:24.688Z,3.00
2023-11-03T05:26:52.837Z,3.60
2023-11-03T05:29:27.898Z,3.00
2023-11-03T05:31:56.092Z,2.92
2023-11-03T05:34:24.281Z,2.53
2023-11-03T05:36:53.930Z,3.10
2023-11-03T05:39:21.413Z,2.90
2023-11-03T05:41:49.421Z,3.08
2023-11-03T05:44:17.286Z,2.78
2023-11-03T05:46:45.742Z,3.40
2023-11-03T05:49:13.852Z,3.10
2023-11-03T05:51:41.373Z,3.45
2023-11-03T05:54:08.957Z,4.15
2023-11-03T05:56:36.780Z,3.88
2023-11-03T05:59:04.892Z,3.90
2023-11-03T06:01:34.973Z,3.85
2023-11-03T06:04:03.005Z,3.35
2023-11-03T06:06:31.148Z,3.85
2023-11-03T06:08:59.309Z,3.58
2023-11-03T06:11:27.026Z,3.80
2023-11-03T06:13:54.725Z,3.80
2023-11-03T06:16:23.553Z,3.60
2023-11-03T06:18:53.880Z,3.67
2023-11-03T06:21:22.149Z,2.90
2023-11-03T06:23:49.637Z,3.55
2023-11-03T06:26:17.850Z,3.10
2023-11-03T06:28:45.459Z,3.22
2023-11-03T06:31:13.207Z,3.60
2023-11-03T06:33:41.294Z,3.53
2023-11-03T06:36:09.572Z,3.75
2023-11-03T06:38:37.162Z,3.75
2023-11-03T06:41:05.216Z,4.10
2023-11-03T06:43:33.059Z,4.10
2023-11-03T06:46:00.634Z,3.90
2023-11-03T06:48:28.751Z,4.20
2023-11-03T06:50:56.461Z,4.00
2023-11-03T06:53:25.801Z,4.10
2023-11-03T06:55:53.472Z,3.85
2023-11-03T06:58:21.050Z,3.42
2023-11-03T07:00:48.883Z,4.55
2023-11-03T07:03:16.548Z,3.80
2023-11-03T07:05:47.780Z,4.00
2023-11-03T07:08:15.355Z,3.65
2023-11-03T07:10:45.597Z,3.72
2023-11-03T07:13:13.633Z,3.55
2023-11-03T07:15:44.674Z,3.97
2023-11-03T07:18:13.460Z,3.42
2023-11-03T07:20:41.791Z,3.70
2023-11-03T07:23:09.610Z,3.72
2023-11-03T07:25:37.266Z,3.80
2023-11-03T07:28:05.038Z,3.90
2023-11-03T07:30:34.158Z,4.07
2023-11-03T07:33:02.281Z,4.80
2023-11-03T07:35:30.094Z,4.43
2023-11-03T07:37:58.288Z,3.97
2023-11-03T07:40:26.137Z,4.55
2023-11-03T07:42:53.927Z,4.57
2023-11-03T07:45:24.509Z,4.57
2023-11-03T07:47:55.060Z,4.22
2023-11-03T07:50:23.112Z,4.07
2023-11-03T07:52:50.820Z,4.00
2023-11-03T07:55:22.040Z,4.32
2023-11-03T07:57:50.030Z,4.05
2023-11-03T08:00:20.608Z,3.72
2023-11-03T08:02:48.823Z,3.35
2023-11-03T08:05:16.740Z,3.15
2023-11-03T08:07:44.396Z,2.70
2023-11-03T08:10:13.900Z,3.20
2023-11-03T08:12:43.693Z,3.13
2023-11-03T08:15:15.487Z,3.25
2023-11-03T08:17:46.200Z,3.05
2023-11-03T08:20:17.376Z,3.25
2023-11-03T08:22:48.693Z,3.00
2023-11-03T08:25:17.185Z,3.20
2023-11-03T08:27:45.408Z,2.90
2023-11-03T08:30:13.836Z,2.95
2023-11-03T08:32:41.568Z,3.00
2023-11-03T08:35:11.735Z,3.00
2023-11-03T08:37:39.261Z,3.00
2023-11-03T08:40:07.528Z,2.72
2023-11-03T08:42:35.275Z,3.00
2023-11-03T08:45:03.701Z,2.70
2023-11-03T08:47:32.680Z,2.65
2023-11-03T08:50:00.608Z,2.70
2023-11-03T08:52:28.208Z,2.72
2023-11-03T08:54:56.053Z,2.90
2023-11-03T08:57:23.857Z,2.60
2023-11-03T08:59:52.718Z,3.22
2023-11-03T09:02:20.145Z,3.50
2023-11-03T09:04:47.753Z,3.13
2023-11-03T09:07:15.806Z,3.75
2023-11-03T09:09:43.774Z,3.50
2023-11-03T09:12:12.363Z,3.00
2023-11-03T09:14:42.505Z,3.40
2023-11-03T09:17:11.580Z,3.38
2023-11-03T09:19:39.588Z,3.58
2023-11-03T09:22:07.356Z,3.53
2023-11-03T09:24:35.689Z,3.42
2023-11-03T09:27:07.284Z,2.72
2023-11-03T09:29:38.018Z,2.72
2023-11-03T09:32:05.915Z,2.90
2023-11-03T09:34:34.199Z,3.42
2023-11-03T09:37:04.571Z,2.83
2023-11-03T09:39:37.164Z,2.60
2023-11-03T09:42:06.894Z,2.80
2023-11-03T09:44:37.600Z,2.72
2023-11-03T09:47:06.919Z,3.00
2023-11-03T09:49:35.419Z,2.60
2023-11-03T09:52:07.168Z,2.58
2023-11-03T09:54:36.387Z,2.60
2023-11-03T09:57:04.831Z,2.83
2023-11-03T09:59:35.886Z,2.63
2023-11-03T10:02:12.964Z,2.90
2023-11-03T10:04:41.635Z,3.00
2023-11-03T10:07:14.291Z,3.05
2023-11-03T10:09:43.802Z,3.08
2023-11-03T10:12:12.295Z,3.10
2023-11-03T10:14:42.747Z,3.10
2023-11-03T10:17:11.160Z,3.30
2023-11-03T10:19:39.312Z,3.67
2023-11-03T10:22:12.906Z,3.40
2023-11-03T10:24:45.249Z,3.15
2023-11-03T10:27:13.774Z,3.53
2023-11-03T10:29:42.834Z,3.60
2023-11-03T10:32:10.955Z,2.97
2023-11-03T10:34:40.688Z,3.30
2023-11-03T10:37:09.461Z,3.42
2023-11-03T10:39:37.226Z,3.38
2023-11-03T10:42:06.522Z,3.25
2023-11-03T10:44:34.352Z,3.40
2023-11-03T10:47:06.315Z,3.40
2023-11-03T10:49:36.159Z,3.10
2023-11-03T10:52:04.735Z,3.10
2023-11-03T10:54:32.258Z,3.10
2023-11-03T10:59:34.841Z,3.63
2023-11-03T11:02:08.084Z,3.55
2023-11-03T11:04:50.694Z,3.78
2023-11-03T11:07:20.815Z,3.53
2023-11-03T11:09:48.846Z,3.65
2023-11-03T11:12:17.142Z,3.38
2023-11-03T11:14:47.264Z,3.65
2023-11-03T11:17:36.560Z,3.78
2023-11-03T11:20:09.448Z,3.83
2023-11-03T11:22:40.877Z,3.97
2023-11-03T11:25:11.469Z,3.72
2023-11-03T11:27:39.637Z,4.00
2023-11-03T11:30:17.094Z,3.92
2023-11-03T11:32:54.817Z,4.30
2023-11-03T11:35:22.957Z,3.83
2023-11-03T11:37:50.980Z,3.55
2023-11-03T11:40:22.209Z,3.85
2023-11-03T11:42:51.078Z,3.55
2023-11-03T11:45:21.879Z,3.60
2023-11-03T11:47:49.940Z,3.45
2023-11-03T11:50:18.846Z,3.40
2023-11-03T11:52:51.076Z,3.80
2023-11-03T11:55:20.775Z,3.80
2023-11-03T11:57:49.491Z,3.55
2023-11-03T12:00:17.257Z,3.88
2023-11-03T12:02:50.698Z,3.70
2023-11-03T12:05:20.406Z,3.75
2023-11-03T12:07:48.845Z,4.03
2023-11-03T12:10:18.519Z,3.70
2023-11-03T12:12:46.166Z,3.40
2023-11-03T12:15:16.291Z,3.60
2023-11-03T12:17:44.439Z,3.45
2023-11-03T12:20:15.836Z,4.03
2023-11-03T12:22:44.020Z,3.78
2023-11-03T12:25:14.941Z,4.07
2023-11-03T12:27:43.314Z,4.00
2023-11-03T12:30:13.276Z,4.00
2023-11-03T12:32:43.885Z,3.70
2023-11-03T12:35:12.843Z,4.00
2023-11-03T12:37:46.976Z,4.03
2023-11-03T12:40:25.506Z,3.53
2023-11-03T12:42:55.553Z,3.60
2023-11-03T12:45:24.042Z,3.50
2023-11-03T12:47:52.236Z,3.78
2023-11-03T12:50:21.224Z,3.95
2023-11-03T12:52:58.115Z,3.90
2023-11-03T12:55:29.544Z,4.18
2023-11-03T12:58:03.066Z,4.28
2023-11-03T13:00:33.468Z,4.03
2023-11-03T13:03:01.441Z,3.97
2023-11-03T13:05:29.569Z,4.07
2023-11-03T13:08:01.133Z,3.85
2023-11-03T13:10:32.739Z,4.40
2023-11-03T13:13:01.698Z,4.00
2023-11-03T13:15:30.402Z,4.00
2023-11-03T13:17:58.226Z,4.60
2023-11-03T13:20:26.238Z,5.50
2023-11-03T13:23:00.000Z,4.50
2023-11-03T13:25:29.757Z,4.38
2023-11-03T13:27:59.128Z,3.60
2023-11-03T13:30:27.445Z,3.63
2023-11-03T13:32:56.458Z,3.75
2023-11-03T13:35:27.782Z,3.88
2023-11-03T13:37:55.661Z,3.63
2023-11-03T13:40:23.403Z,3.70
2023-11-03T13:42:52.916Z,3.08
2023-11-03T13:45:20.988Z,3.80
2023-11-03T13:47:50.058Z,3.35
2023-11-03T13:50:22.920Z,3.95
2023-11-03T13:52:51.629Z,3.47
2023-11-03T13:55:23.664Z,3.63
2023-11-03T13:57:53.261Z,3.15
2023-11-03T14:00:21.571Z,3.33
2023-11-03T14:02:52.751Z,3.42
2023-11-03T14:05:20.588Z,3.45
2023-11-03T14:07:49.044Z,3.20
2023-11-03T14:10:16.844Z,3.50
2023-11-03T14:12:45.452Z,3.05
2023-11-03T14:15:13.838Z,3.10
2023-11-03T14:17:42.953Z,3.45
2023-11-03T14:20:14.359Z,3.40
2023-11-03T14:22:46.081Z,3.17
2023-11-03T14:25:14.263Z,2.88
2023-11-03T14:27:43.264Z,2.33
2023-11-03T14:30:13.679Z,2.80
2023-11-03T14:32:42.245Z,2.83
2023-11-03T14:35:13.297Z,2.53
2023-11-03T14:37:46.281Z,2.67
2023-11-03T14:40:16.259Z,2.95
2023-11-03T14:42:46.898Z,2.83
2023-11-03T14:45:14.975Z,2.67
2023-11-03T14:47:43.650Z,2.60
2023-11-03T14:50:13.242Z,2.33
2023-11-03T14:52:41.469Z,2.60
2023-11-03T14:55:09.986Z,2.50
2023-11-03T14:57:38.934Z,2.70
2023-11-03T15:00:13.830Z,2.83
2023-11-03T15:02:43.151Z,2.60
2023-11-03T15:05:14.540Z,2.67
2023-11-03T15:07:42.466Z,2.60
2023-11-03T15:10:13.021Z,2.85
2023-11-03T15:12:41.555Z,3.13
2023-11-03T15:15:09.993Z,2.88
2023-11-03T15:17:37.483Z,2.85
2023-11-03T15:20:11.431Z,3.08
2023-11-03T15:22:40.118Z,2.70
2023-11-03T15:25:08.162Z,2.50
2023-11-03T15:27:36.223Z,2.83
2023-11-03T15:30:04.170Z,2.97
2023-11-03T15:32:32.348Z,2.63
2023-11-03T15:35:01.689Z,2.72
2023-11-03T15:37:30.946Z,2.80
2023-11-03T15:39:58.466Z,3.35
2023-11-03T15:42:28.601Z,3.03
2023-11-03T15:45:00.016Z,2.60
2023-11-03T15:47:29.544Z,2.53
2023-11-03T15:49:58.710Z,2.50
2023-11-03T15:52:32.546Z,2.80
2023-11-03T15:55:01.348Z,2.63
2023-11-03T15:57:30.453Z,2.15
2023-11-03T16:00:00.930Z,2.30
2023-11-03T16:02:29.501Z,2.20
2023-11-03T16:04:57.437Z,2.72
2023-11-03T16:07:25.313Z,2.60
2023-11-03T16:09:53.644Z,2.10
2023-11-03T16:12:22.242Z,2.42
2023-11-03T16:14:49.984Z,2.20
2023-11-03T16:17:18.826Z,2.70
2023-11-03T16:19:46.826Z,2.22
2023-11-03T16:22:14.777Z,2.55
2023-11-03T16:24:43.376Z,2.75
2023-11-03T16:27:11.041Z,2.40
2023-11-03T16:29:39.226Z,3.15
2023-11-03T16:32:08.144Z,3.45
2023-11-03T16:34:36.732Z,3.40
2023-11-03T16:37:05.796Z,3.60
2023-11-03T16:39:33.974Z,3.63
2023-11-03T16:42:01.561Z,3.60
2023-11-03T16:44:29.628Z,3.28
2023-11-03T16:46:57.222Z,3.40
2023-11-03T16:49:27.236Z,3.47
2023-11-03T16:51:55.160Z,3.70
2023-11-03T16:54:22.636Z,3.78
2023-11-03T16:56:50.300Z,4.43
2023-11-03T16:59:19.094Z,4.53
2023-11-03T17:01:47.217Z,4.28
2023-11-03T17:04:15.682Z,4.32
2023-11-03T17:06:46.039Z,4.53
2023-11-03T17:09:13.561Z,4.80
2023-11-03T17:11:41.108Z,4.30
2023-11-03T17:14:08.661Z,4.18
2023-11-03T17:16:39.906Z,4.25
2023-11-03T17:19:08.389Z,4.72
2023-11-03T17:21:36.157Z,4.35
2023-11-03T17:24:04.775Z,4.35
2023-11-03T17:26:32.348Z,4.47
2023-11-03T17:29:00.011Z,5.18
2023-11-03T17:31:27.809Z,5.05
2023-11-03T17:33:55.308Z,5.40
2023-11-03T17:36:24.034Z,5.28
2023-11-03T17:38:51.752Z,5.50
2023-11-03T17:41:20.776Z,5.05
2023-11-03T17:43:48.744Z,3.92
2023-11-03T17:46:16.921Z,4.15
2023-11-03T17:48:48.013Z,3.58
2023-11-03T17:51:18.306Z,4.13
2023-11-03T17:53:48.243Z,3.25
2023-11-03T17:56:17.834Z,3.72
2023-11-03T17:58:47.296Z,3.20
2023-11-03T18:01:15.291Z,4.18
2023-11-03T18:03:43.090Z,4.25
2023-11-03T18:06:10.720Z,4.38
2023-11-03T18:08:38.431Z,4.00
2023-11-03T18:11:06.125Z,3.85
2023-11-03T18:13:34.222Z,3.78
2023-11-03T18:16:01.884Z,3.22
2023-11-03T18:18:30.012Z,2.80
2023-11-03T18:20:58.361Z,2.75
2023-11-03T18:23:26.242Z,2.10
2023-11-03T18:25:54.889Z,1.80
2023-11-03T18:28:22.750Z,1.90
2023-11-03T18:30:50.866Z,1.83
2023-11-03T18:33:22.042Z,2.00
2023-11-03T18:35:53.005Z,1.60
2023-11-03T18:38:21.318Z,1.50
2023-11-03T18:40:49.743Z,1.58
2023-11-03T18:43:18.377Z,1.48
2023-11-03T18:45:48.606Z,1.30
2023-11-03T18:48:20.069Z,0.90
2023-11-03T18:51:24.553Z,0.70
2023-11-03T18:57:39.156Z,0.80
2023-11-03T19:04:46.852Z,0.50
2023-11-03T19:07:30.493Z,0.60
2023-11-03T19:09:36.556Z,0.63
2023-11-03T19:12:07.492Z,0.70
2023-11-03T19:14:38.598Z,0.50
2023-11-03T19:17:07.152Z,0.50
2023-11-03T19:19:35.051Z,0.90
2023-11-03T19:22:05.260Z,0.60
2023-11-03T19:24:33.062Z,0.70
2023-11-03T19:27:01.770Z,0.82
2023-11-03T19:29:29.510Z,0.80
2023-11-03T19:31:57.227Z,1.10
2023-11-03T19:34:25.225Z,0.90
2023-11-03T19:36:53.200Z,0.85
2023-11-03T19:39:20.992Z,1.00
2023-11-03T19:41:49.318Z,1.00
2023-11-03T19:44:16.958Z,1.00
2023-11-03T19:46:45.756Z,1.20
2023-11-03T19:49:13.428Z,1.02
2023-11-03T19:51:41.933Z,1.23
2023-11-03T19:54:09.653Z,1.00
2023-11-03T19:56:38.836Z,1.10
2023-11-03T19:59:06.561Z,1.00
2023-11-03T20:01:37.259Z,1.20
2023-11-03T20:04:05.014Z,1.10
2023-11-03T20:06:32.517Z,1.10
2023-11-03T20:09:00.578Z,1.30
2023-11-03T20:11:28.296Z,1.20
2023-11-03T20:13:56.890Z,1.08
2023-11-03T20:16:24.752Z,1.35
2023-11-03T20:18:55.381Z,1.10
2023-11-03T20:21:22.981Z,1.10
2023-11-03T20:23:51.756Z,1.20
2023-11-03T20:26:23.552Z,1.73
2023-11-03T20:28:51.528Z,1.40
2023-11-03T20:31:25.023Z,1.20
2023-11-03T20:33:52.782Z,1.10
2023-11-03T20:36:20.864Z,0.93
2023-11-03T20:38:49.212Z,1.10
2023-11-03T20:41:18.172Z,1.35
2023-11-03T20:43:45.897Z,1.33
2023-11-03T20:46:13.505Z,1.70
2023-11-03T20:48:41.669Z,1.40
2023-11-03T20:51:10.486Z,1.30
2023-11-03T20:53:38.230Z,1.40
2023-11-03T20:56:05.921Z,1.20
2023-11-03T20:58:33.581Z,1.10
2023-11-03T21:01:01.772Z,1.00
2023-11-03T21:03:31.729Z,1.20
2023-11-03T21:06:12.272Z,1.00
2023-11-03T21:08:40.191Z,0.98
2023-11-03T21:11:07.587Z,0.70
2023-11-03T21:13:39.912Z,0.80
2023-11-03T21:16:08.417Z,1.45
2023-11-03T21:18:36.233Z,0.60
2023-11-03T21:21:04.376Z,0.70
2023-11-03T21:23:32.526Z,0.40
2023-11-03T21:26:00.404Z,0.43
2023-11-03T21:28:29.605Z,0.55
2023-11-03T21:30:57.219Z,0.55
2023-11-03T21:33:24.990Z,0.40
2023-11-03T21:35:52.744Z,0.50
2023-11-03T21:38:20.367Z,0.55
2023-11-03T21:40:54.139Z,0.50
2023-11-03T21:43:21.661Z,0.60
2023-11-03T21:45:49.373Z,0.60
2023-11-03T21:48:17.665Z,0.60
2023-11-03T21:50:45.923Z,0.50
2023-11-03T21:53:13.534Z,1.05
2023-11-03T21:55:41.143Z,0.80
2023-11-03T21:58:09.272Z,0.60
2023-11-03T22:00:38.701Z,0.50
2023-11-03T22:03:08.963Z,0.50
2023-11-03T22:05:36.689Z,0.40
2023-11-03T22:08:04.677Z,0.50
2023-11-03T22:10:32.411Z,0.50
2023-11-03T22:13:00.394Z,0.40
2023-11-03T22:15:28.243Z,0.40
2023-11-03T22:17:57.885Z,0.40
2023-11-03T22:20:26.871Z,0.40
2023-11-03T22:22:55.044Z,0.38
2023-11-03T22:25:22.532Z,0.30
2023-11-03T22:27:50.519Z,0.35
2023-11-03T22:30:18.774Z,0.40
2023-11-03T22:32:46.769Z,0.60
2023-11-03T22:35:14.836Z,0.70
2023-11-03T22:37:42.642Z,0.90
2023-11-03T22:40:11.073Z,0.90
2023-11-03T22:42:38.649Z,1.10
2023-11-03T22:45:06.427Z,0.93
2023-11-03T22:47:34.159Z,0.80
2023-11-03T22:50:02.059Z,0.80
2023-11-03T22:52:29.569Z,0.77
2023-11-03T22:54:57.646Z,0.98
2023-11-03T22:57:25.622Z,0.80
2023-11-03T22:59:53.446Z,0.65
2023-11-03T23:02:21.335Z,0.50
2023-11-03T23:04:48.889Z,0.57
2023-11-03T23:07:16.403Z,0.40
2023-11-03T23:09:46.074Z,0.50
2023-11-03T23:12:13.904Z,0.60
2023-11-03T23:14:41.791Z,0.47
2023-11-03T23:17:10.257Z,0.52
2023-11-03T23:19:38.298Z,0.47
2023-11-03T23:22:05.857Z,0.47
2023-11-03T23:24:33.649Z,0.47
2023-11-03T23:27:01.420Z,0.50
2023-11-03T23:29:29.888Z,0.40
2023-11-03T23:31:57.568Z,0.45
2023-11-03T23:34:25.346Z,0.60
2023-11-03T23:36:53.292Z,0.50
2023-11-03T23:39:21.236Z,0.60
2023-11-03T23:41:49.239Z,0.60
2023-11-03T23:44:17.050Z,0.73
2023-11-03T23:46:44.832Z,0.60
2023-11-03T23:49:12.439Z,0.60
2023-11-03T23:51:40.177Z,0.52
2023-11-03T23:54:07.850Z,0.70
2023-11-03T23:56:38.500Z,0.60
2023-11-03T23:59:06.194Z,0.90
